Tiempo atmosférico en la estación meteorológica de Bilbao Aeropuerto, Bizkaia (42 m.)



Fecha
DESCASC
Temp. máxima en grados centígrados (hora)
DESCASC
Temp. mínima en grados centígrados (hora)
DESCASC
Temp. media en grados centígrados
DESCASC
Racha de viento máxima en m/sg (hora)
DESCASC
Velocidad máxima media en intervalos de 10 minutos(hora)
DESCASC
Precipitaciones diarias en mm
DESCASC
Precipitaciones de 00:00 a 06:00 en mm
DESCASC
Precipitaciones de 06:00 a 12:00 en mm
DESCASC
Precipitaciones de 12:00 a 18:00 en mm
DESCASC
Precipitaciones de 18:00 a 24:00 en mm
DESCASC
13-10-2019 28.3 (17:10) 15.5 (23:50) 21.9 14.44 (11:20) 9.72 (17:10) 0 0 0 0 0
12-10-2019 29.8 (17:00) 16.4 (05:00) 23.1 15.28 (21:00) 9.44 (20:10) 0 0 0 0 0
11-10-2019 30.4 (17:10) 11.9 (03:10) 21.1 9.72 (11:40) 5.28 (04:50) 0 0 0 0 0
10-10-2019 22.6 (15:30) 9.7 (00:00) 16.2 8.33 (19:10) 4.72 (16:00) 0 0 0 0 0
09-10-2019 20.1 (15:10) 13.3 (00:00) 16.7 11.39 (17:00) 7.22 (15:50) 0.4 0.2 0.2 0 0
08-10-2019 26.3 (16:20) 10.6 (00:00) 18.4 12.78 (17:50) 8.89 (18:10) 1.4 0 0 0 1.4
07-10-2019 -- (--) -- (--) -- -- (--) -- (--) -- -- -- 0 0
06-10-2019 19.3 (15:20) 13.8 (00:00) 16.5 7.78 (16:50) 5.28 (16:50) 1.7 0 0 1.7 0
05-10-2019 20.8 (13:10) 13.1 (00:00) 16.9 -- (--) -- (--) 0 0 0 0 0
04-10-2019 18.2 (11:40) 14.9 (00:00) 16.6 5.83 (12:50) 3.33 (12:50) 1.7 0 0.5 1.2 0
03-10-2019 22.5 (16:30) 12 (00:00) 17.3 6.67 (14:40) 4.44 (14:50) 0 0 0 0 0
02-10-2019 19.5 (13:10) 14.4 (00:00) 16.9 14.44 (14:00) 8.33 (14:10) 7.1 0.3 3.2 2.3 1.3
01-10-2019 23.4 (13:50) 16.7 (00:00) 20.1 11.67 (15:10) 7.78 (20:50) 0 0 0 0 0
30-09-2019 28.4 (15:10) 15.5 (00:00) 21.9 7.78 (18:00) 3.61 (18:00) 0 0 0 0 0
29-09-2019 28.6 (16:10) 11.5 (00:00) 20.1 10.28 (17:10) 7.5 (17:10) 0 0 0 0 0
28-09-2019 25.1 (15:20) 15.3 (00:00) 20.2 8.33 (18:10) 5.83 (18:10) 0 0 0 0 0
27-09-2019 24.9 (16:10) 14.4 (00:00) 19.6 14.44 (12:00) 6.11 (17:50) 0 0 0 0 0
26-09-2019 23.3 (14:50) 14.1 (00:00) 18.7 7.22 (16:30) 5 (16:40) 0 0 0 0 0
25-09-2019 23.2 (13:20) 13.7 (00:00) 18.5 9.72 (13:10) 6.67 (16:00) 0 0 0 0 0
24-09-2019 -- (--) -- (--) -- -- (--) -- (--) -- -- 0 0 0.5
23-09-2019 24.7 (16:40) 13.6 (00:00) 19.2 7.22 (16:20) 3.89 (16:20) 0.3 0 0 0 0.3
22-09-2019 25.8 (01:10) 16.2 (00:00) 21 12.5 (02:00) 8.89 (02:00) 13.8 12 1.5 0 0.3
21-09-2019 28 (14:10) 19.4 (00:00) 23.7 11.67 (00:10) 6.94 (00:10) 0 0 0 0 0
20-09-2019 31.7 (16:00) 14.8 (00:00) 23.3 16.11 (20:10) 9.17 (22:50) 4.9 0 0 0 4.9
19-09-2019 24.6 (16:10) 15.1 (00:00) 19.9 7.22 (16:10) 4.72 (16:20) 0 0 0 0 0
18-09-2019 22.6 (15:30) 18.9 (00:00) 20.8 7.22 (14:10) 5.28 (14:20) 2.5 2.3 0.2 0 0
17-09-2019 27.2 (15:30) 17.3 (00:00) 22.3 7.22 (17:20) 5.28 (17:20) 0 0 0 0 0
16-09-2019 28.1 (13:40) 18.1 (00:00) 23.1 8.89 (15:10) 5.83 (14:40) 1.8 1.8 0 0 0

Gráficas

Temp. máximas Temp. mínimas Temp. medias Precipitaciones Rachas de viento máximas Velocidades máximas media en intervalos de 10 minutos

Datos horarios

Fecha y hora oficial Temperatura (ºC) Velocidad del viento (km/h) Dirección del viento Racha (km/h) Dirección de racha Precipitación (mm) Presión (hPa) Tendencia (hPa) Humedad (%)
2019-10-15 23:00:00 18.4 18 Sur 37 Sur 0 1012.2 -0.3 47
2019-10-15 22:00:00 17.8 14 Sudeste 39 Sur 0 1012.4 0.3 46
2019-10-15 21:00:00 18.2 13 Sur 37 Sur 0 1012.5 0.3 45
2019-10-15 20:00:00 18.5 10 Sur 30 Sudoeste 0 1012.5 0 43
2019-10-15 19:00:00 19.6 10 Sur 26 Sudoeste 0 1012.1 -0.6 40
2019-10-15 18:00:00 21.1 8 Sur 18 Sudoeste 0 1012.2 -0.6 38
2019-10-15 17:00:00 20.8 12 Sur 22 Sudoeste 0 1012.5 -0.7 37
2019-10-15 16:00:00 20.5 12 Oeste 28 Sudoeste 0 1012.7 -0.9 40
2019-10-15 15:00:00 20.6 15 Sudoeste 24 Oeste 0 1012.8 -1.2 38
2019-10-15 14:00:00 19.6 15 Sudoeste 28 Sudoeste 0 1013.2 -0.7 41
2019-10-15 13:00:00 18.2 14 Sudoeste 28 Oeste 0 1013.6 0.2 42
2019-10-15 12:00:00 16.1 17 Sudoeste 33 Sudoeste 0 1014 1.3 49
2019-10-15 11:00:00 14.9 21 Sudoeste 35 Sudoeste 0 1013.9 1.8 52
2019-10-15 10:00:00 13.8 15 Sudoeste 41 Sudoeste 0 1013.4 1.6 55
2019-10-15 09:00:00 13.1 14 Sudoeste 41 Sudoeste 0 1012.7 1.3 58
2019-10-15 08:00:00 13 18 Sudoeste 35 Sudoeste 0 1012.1 1.2 61
2019-10-15 07:00:00 12.7 14 Sudoeste 32 Sur 0 1011.8 1.1 66
2019-10-15 06:00:00 12.1 4 Sudoeste 18 Sudoeste 0 1011.4 0.7 69
2019-10-15 05:00:00 12.8 9 Sudoeste 21 Sudoeste 0 1010.9 0.4 65
2019-10-15 04:00:00 12.9 10 Sudoeste 22 Sudoeste 0 1010.7 0.9 65
2019-10-15 03:00:00 13.1 12 Oeste 21 Oeste 0 1010.7 1.2 64
2019-10-15 02:00:00 13.2 10 Oeste 21 Sudoeste 0 1010.5 1.6 69
2019-10-15 01:00:00 13.4 12 Sudoeste 21 Sudoeste 0 1009.8 1.6 71
2019-10-15 00:00:00 13.4 11 Sudoeste 21 Sudoeste 0 1009.5 2.3 78
2019-10-14 23:00:00 12.5 5 Sudoeste 24 Oeste 1 1008.9 2.8 88
2019-10-14 22:00:00 12.9 15 Oeste 33 Noroeste 2.4 1008.2 3.1 85
2019-10-14 21:00:00 13.8 26 Noroeste 52 Noroeste 0.5 1007.2 3.2 80
2019-10-14 20:00:00 17.2 13 Oeste 21 Sudoeste 0 1006.1 2.6 77
2019-10-14 19:00:00 18.3 17 Sur 52 Sudoeste 0.1 1005.1 1.6 54
2019-10-14 18:00:00 18.7 9 Oeste 17 Oeste 0 1004 1.1 71
2019-10-14 17:00:00 19 12 Norte 22 Norte 0 1003.5 0.5 75
2019-10-14 16:00:00 19.1 14 Oeste 28 Oeste 0 1003.5 0.1 75
2019-10-14 15:00:00 20.8 10 Oeste 21 Oeste 0 1002.9 -0.6 69
2019-10-14 14:00:00 18.2 4 Norte 15 Nordeste 0.2 1003 0.8 86
2019-10-14 13:00:00 16.4 4 Sudeste 17 Noroeste 0.3 1003.4 0.7 91
2019-10-14 12:00:00 15.6 10 Oeste 39 Oeste 2 1003.5 0.8 92
2019-10-14 11:00:00 18.1 14 Noroeste 21 Oeste 0 1002.2 0 77
2019-10-14 10:00:00 16.7 8 Oeste 28 Noroeste 0 1002.7 -- 84
2019-10-14 09:00:00 16.9 15 Oeste 41 Noroeste 0 1002.7 -- 85
2019-10-14 08:00:00 17.9 19 Noroeste -- -- -- 1002.2 1.3 86
2019-10-14 07:00:00 -- -- -- -- -- -- -- -- --
2019-10-14 06:00:00 -- -- -- -- -- -- -- -- --
2019-10-14 05:00:00 22.2 19 Sudeste 35 Sudeste 0 1000.9 -2.6 60
2019-10-14 04:00:00 21.5 16 Sudeste 32 Sudeste 0 1001.6 -2.8 57
2019-10-14 03:00:00 13.8 10 Este 15 Este 0 1002.5 -2.5 91
2019-10-14 02:00:00 13.9 4 Nordeste 9 Nordeste 0 1003.5 -2.2 94
2019-10-14 01:00:00 14.7 4 Este 9 Este 0 1004.4 -1.5 96
2019-10-14 00:00:00 15.5 6 Este 13 Este 0 1005 -1 95
2019-10-13 23:00:00 16.2 6 Este 11 Nordeste 0 1005.7 -0.7 94
2019-10-13 22:00:00 16.7 5 Nordeste 9 Nordeste 0 1005.9 -0.6 93
2019-10-13 21:00:00 18.3 4 Sudeste 9 Este 0 1006 -0.3 92
2019-10-13 20:00:00 19.5 9 Oeste 17 Oeste 0 1006.4 0.7 87
2019-10-13 19:00:00 21 11 Oeste 30 Noroeste 0 1006.5 0.5 82
2019-10-13 18:00:00 23 16 Oeste 50 Oeste 0 1006.3 0.3 67
2019-10-13 17:00:00 28.1 14 Noroeste 22 Norte 0 1005.7 -0.6 37
2019-10-13 16:00:00 27.7 8 Noroeste 22 Noroeste 0 1006 -0.4 42
2019-10-13 15:00:00 27.4 5 Sur 17 Sudeste 0 1006 -0.7 45
2019-10-13 14:00:00 27.8 11 Sudeste 37 Sudeste 0 1006.3 0.4 42
2019-10-13 13:00:00 26.2 15 Sur 32 Sudoeste 0 1006.4 0.6 45
2019-10-13 12:00:00 25.3 14 Sudeste 52 Sudeste 0 1006.7 2 47
2019-10-13 11:00:00 24.5 22 Sudeste 42 Sur 0 1005.9 2 49
2019-10-13 10:00:00 22.9 12 Sudeste 39 Sudeste 0 1005.8 2.5 58
2019-10-13 09:00:00 22.1 25 Sudeste 39 Este 0 1004.7 1.9 60
2019-10-13 08:00:00 22.1 26 Este 37 Este 0 1003.9 0.9 58
2019-10-13 07:00:00 22.3 17 Este 30 Este 0 1003.3 0.1 55
2019-10-13 06:00:00 22.9 9 Sudeste 42 Este 0 1002.8 -1.6 51
2019-10-13 05:00:00 23.1 27 Este 42 Este 0 1003 -1.4 52
2019-10-13 04:00:00 23.6 28 Sudeste 41 Sudeste 0 1003.2 -1.3 54
2019-10-13 03:00:00 23.9 23 Sudeste 46 Este 0 1004.4 -1 55
2019-10-13 02:00:00 24.1 29 Sudeste 45 Sudeste 0 1004.4 -1.1 56
2019-10-13 01:00:00 23.8 19 Sudeste 35 Este 0 1004.5 -0.8 58
2019-10-13 00:00:00 24.1 22 Sudeste 33 Sudeste 0 1005.4 -1.6 59
2019-10-12 23:00:00 23 6 Sudeste 32 Sudeste 0 1005.5 1 58
2019-10-12 22:00:00 25.4 22 Sudeste 42 Sudeste 0 1005.3 1.1 46
2019-10-12 21:00:00 27.6 27 Sur 55 Sudoeste 0 1007 2.5 39
2019-10-12 20:00:00 26.8 28 Sudeste 42 Sudeste 0 1004.5 -0.2 45
2019-10-12 19:00:00 27.9 29 Sudeste 45 Este 0 1004.2 -1.1 44
2019-10-12 18:00:00 28.9 23 Sudeste 41 Sudeste 0 1004.5 -1.8 45
2019-10-12 17:00:00 29.7 23 Sudeste 37 Este 0 1004.7 -2.6 45
2019-10-12 16:00:00 27.6 17 Este 26 Sudeste 0 1005.3 -2.7 51
2019-10-12 15:00:00 26 12 Sudeste 30 Sudeste 0 1006.3 -2 54
2019-10-12 14:00:00 25.5 9 Sudeste 39 Sudoeste 0 1007.3 -0.9 53
2019-10-12 13:00:00 25 9 Sur 33 Sudeste 0 1008 -0.1 54
2019-10-12 12:00:00 24.4 19 Sudeste 45 Sudeste 0 1008.3 0.7 56
2019-10-12 11:00:00 23.3 20 Sudeste 32 Sur 0 1008.2 0.6 61
2019-10-12 10:00:00 22.7 13 Sudeste 33 Sur 0 1008.1 0.4 64
2019-10-12 09:00:00 22.9 19 Sur 33 Sur 0 1007.6 -0.1 63
2019-10-12 08:00:00 17.2 9 Sur 15 Sur 0 1007.6 -0.6 93
2019-10-12 07:00:00 16.8 6 Oeste 11 Nordeste 0 1007.7 -0.8 94
2019-10-12 06:00:00 16.6 2 Este 5 Este 0 1007.7 -1.4 95
2019-10-12 05:00:00 16.5 5 Este 8 Norte 0 1008.2 -1.2 95
2019-10-12 04:00:00 16.8 4 Oeste 9 Oeste 0 1008.5 -1.8 95
2019-10-12 03:00:00 16.7 3 Nordeste 11 Sudeste 0 1009.1 -1.6 95
2019-10-12 02:00:00 16.9 8 Este 11 Este 0 1009.4 -1 94
2019-10-12 01:00:00 17.5 5 Sudeste 11 Sudoeste 0 1010.3 0.5 93
2019-10-12 00:00:00 17.8 6 Oeste 11 Oeste 0 1010.7 1.2 94
2019-10-11 23:00:00 17.2 3 Oeste 5 Oeste 0 1010.4 1.1 94
2019-10-11 22:00:00 17.8 4 Oeste 8 Oeste 0 1009.8 0.7 90
2019-10-11 21:00:00 18.9 5 Oeste 13 Oeste 0 1009.5 0.6 86
2019-10-11 20:00:00 19.6 7 Oeste 18 Oeste 0 1009.3 0.3 82
2019-10-11 19:00:00 21.6 11 Oeste 22 Oeste 0 1009.1 -0.7 75
2019-10-11 18:00:00 24.2 15 Oeste 24 Oeste 0 1008.9 -1.7 66
2019-10-11 17:00:00 30.2 8 Sudeste 22 Sudeste 0 1009 -3 35
2019-10-11 16:00:00 29.5 14 Sudeste 28 Sudeste 0 1009.8 -3 37
2019-10-11 15:00:00 28.4 12 Sudeste 28 Sudeste 0 1010.6 -2.6 40
2019-10-11 14:00:00 26.6 16 Sur 30 Sur 0 1012 -1.6 41
2019-10-11 13:00:00 25.4 14 Sur 26 Sur 0 1012.8 -0.3 43
2019-10-11 12:00:00 24.1 7 Este 35 Nordeste 0 1013.2 0.4 46
2019-10-11 11:00:00 22.2 6 Este 32 Nordeste 0 1013.6 1.1 48
2019-10-11 10:00:00 19.8 16 Este 26 Este 0 1013.1 1 54
2019-10-11 09:00:00 14.1 0 Calma 13 Norte 0 1012.8 0.5 76
2019-10-11 08:00:00 13.9 6 Norte 13 Norte 0 1012.5 -0.1 75
2019-10-11 07:00:00 14 7 Este 15 Este 0 1012.1 -1.3 75
2019-10-11 06:00:00 12.9 13 Este 26 Este 0 1012.3 -1.9 84
2019-10-11 05:00:00 12.7 16 Este 26 Sudeste 0 1012.6 -2.1 89
2019-10-11 04:00:00 12.1 12 Este 18 Este 0 1013.4 -1.9 92
2019-10-11 03:00:00 12.2 8 Este 17 Sudeste 0 1014.2 -1.6 92
2019-10-11 02:00:00 12.7 10 Sudeste 18 Sudeste 0 1014.7 -1.4 92
2019-10-11 01:00:00 12.6 8 Este 13 Este 0 1015.3 -1 91
2019-10-11 00:00:00 13 8 Este 13 Este 0 1015.8 -0.6 89
2019-10-10 23:00:00 13.3 6 Sudeste 13 Este 0 1016.1 -0.4 89
2019-10-10 22:00:00 14.5 8 Este 21 Nordeste 0 1016.3 -0.2 85
2019-10-10 21:00:00 15.5 9 Nordeste 18 Nordeste 0 1016.4 0.1 81
2019-10-10 20:00:00 17 10 Este 30 Nordeste 0 1016.5 -0.2 75
2019-10-10 19:00:00 19.4 12 Este 26 Este 0 1016.5 -0.7 66
2019-10-10 18:00:00 20.8 15 Nordeste 24 Este 0 1016.3 -1.5 62
2019-10-10 17:00:00 21.2 15 Norte 26 Nordeste 0 1016.7 -1.9 60
2019-10-10 16:00:00 21.8 17 Nordeste 26 Nordeste 0 1017.2 -2.2 57
2019-10-10 15:00:00 22 10 Este 24 Este 0 1017.8 -2.1 51
2019-10-10 14:00:00 21.3 8 Este 13 Este 0 1018.6 -1.8 55
2019-10-10 13:00:00 19.5 4 Nordeste 11 Este 0 1019.4 -0.7 58
2019-10-10 12:00:00 17 6 Este 13 Nordeste 0 1019.9 0.3 71
2019-10-10 11:00:00 14.2 6 Este 17 Este 0 1020.4 1.2 83
2019-10-10 10:00:00 12.1 4 Este 15 Este 0 1020.1 1 91
2019-10-10 09:00:00 10.5 7 Este 17 Nordeste 0 1019.6 0.5 94
2019-10-10 08:00:00 10 6 Este 11 Este 0 1019.2 0.1 94
2019-10-10 07:00:00 9.9 8 Este 11 Este 0 1019.1 0 95
2019-10-10 06:00:00 10.4 5 Nordeste 11 Este 0 1019.1 -0.1 94
2019-10-10 05:00:00 10.4 7 Este 9 Este 0 1019.1 0 94
2019-10-10 04:00:00 11.2 6 Este 9 Este 0 1019.1 -0.3 93
2019-10-10 03:00:00 11.6 8 Este 9 Este 0 1019.2 -0.2 93
2019-10-10 02:00:00 11.9 6 Este 11 Este 0 1019.1 -0.1 93
2019-10-10 01:00:00 12.7 7 Este 11 Este 0 1019.4 0.2 91
2019-10-10 00:00:00 13.4 7 Este 9 Este 0 1019.4 0.4 89
2019-10-09 23:00:00 14.2 5 Este 15 Nordeste 0 1019.2 0.3 87
2019-10-09 22:00:00 14.7 4 Nordeste 9 Sudoeste 0 1019.2 0.8 82
2019-10-09 21:00:00 16.4 7 Sudoeste 13 Oeste 0 1019 0.8 73
2019-10-09 20:00:00 16.6 10 Noroeste 24 Oeste 0 1018.9 0.9 74
2019-10-09 19:00:00 18.2 17 Noroeste 33 Noroeste 0 1018.4 0.6 69
2019-10-09 18:00:00 18.9 24 Noroeste 33 Noroeste 0 1018.2 0.3 63
2019-10-09 17:00:00 19.6 25 Noroeste 41 Noroeste 0 1018 -0.1 60
2019-10-09 16:00:00 19.8 25 Noroeste 39 Noroeste 0 1017.8 -0.7 54
2019-10-09 15:00:00 19.7 26 Noroeste 37 Noroeste 0 1017.9 -0.8 56
2019-10-09 14:00:00 18.6 20 Noroeste 35 Noroeste 0 1018.1 -0.1 66
2019-10-09 13:00:00 17.7 17 Noroeste 32 Noroeste 0 1018.5 0.9 74
2019-10-09 12:00:00 16.4 23 Noroeste 32 Noroeste 0 1018.7 1.4 84
2019-10-09 11:00:00 17.1 4 Nordeste 18 Norte 0 1018.2 1.2 83
2019-10-09 10:00:00 15.6 5 Este 17 Este 0 1017.6 0.8 94
2019-10-09 09:00:00 14.7 9 Este 11 Sudeste 0 1017.3 1 95
2019-10-09 08:00:00 14.7 2 Este 13 Noroeste 0.2 1017 1 93
2019-10-09 07:00:00 14.8 5 Sudeste 15 Sudeste 0 1016.8 1 96
2019-10-09 06:00:00 14.7 5 Este 5 Este 0 1016.3 0.7 95
2019-10-09 05:00:00 14.7 4 Oeste 11 Oeste 0 1016 0 94
2019-10-09 04:00:00 14.9 5 Oeste 9 Oeste 0 1015.8 -0.4 95
2019-10-09 03:00:00 15.1 5 Oeste 11 Oeste 0.2 1015.6 -0.9 95
2019-10-09 02:00:00 15.4 4 Este 8 Este 0 1016 -0.5 95
2019-10-09 01:00:00 15.2 5 Este 8 Este 0 1016.2 -0.4 94
2019-10-09 00:00:00 15.2 5 Sur 28 Noroeste 0 1016.5 0.1 94
2019-10-08 23:00:00 16.1 9 Oeste 15 Oeste 0 1016.5 0.9 96
2019-10-08 22:00:00 16.3 8 Oeste 22 Noroeste 0.1 1016.6 1.9 97
2019-10-08 21:00:00 16.4 17 Noroeste 35 Noroeste 1.1 1016.4 2.3 96
2019-10-08 20:00:00 17.7 14 Oeste 33 Noroeste 0.2 1015.6 2.6 95
2019-10-08 19:00:00 19.2 21 Noroeste 45 Noroeste 0 1014.7 2.1 91
2019-10-08 18:00:00 21 30 Noroeste 46 Noroeste 0 1014.1 1.6 84
2019-10-08 17:00:00 24.2 11 Noroeste 33 Noroeste 0 1013 0.2 63
2019-10-08 16:00:00 25.9 14 Norte 22 Norte 0 1012.6 -0.7 56
2019-10-08 15:00:00 25.4 10 Noroeste 26 Noroeste 0 1012.5 -1 60
2019-10-08 14:00:00 24.7 9 Oeste 15 Oeste 0 1012.8 -0.9 60
2019-10-08 13:00:00 23.3 3 Noroeste 11 Oeste 0 1013.3 -0.4 45
2019-10-08 12:00:00 21 2 Sur 13 Norte 0 1013.5 -0.2 48
2019-10-08 11:00:00 17.8 8 Sudeste 17 Este 0 1013.7 -0.2 58
2019-10-08 10:00:00 14.6 8 Este 13 Este 0 1013.7 -0.2 71
2019-10-08 09:00:00 11.5 10 Este 24 Nordeste 0 1013.7 -0.5 80
2019-10-08 08:00:00 10.9 6 Este 17 Este 0 1013.9 -0.8 83
2019-10-08 07:00:00 10.9 5 Este 11 Nordeste 0 1013.9 -1.1 85
2019-10-08 06:00:00 10.9 8 Este 13 Este 0 1014.2 -1.8 88
2019-10-08 05:00:00 11.2 6 Este 9 Este 0 1014.7 -1.2 88
2019-10-08 04:00:00 11.7 4 Este 11 Este 0 1015 -1 88
2019-10-08 03:00:00 12.1 6 Este 11 Este 0 1016 -0.2 87
2019-10-08 02:00:00 12.6 5 Este 11 Este 0 1015.9 -0.6 87
2019-10-08 01:00:00 12.8 10 Este 13 Este 0 1016 -0.3 89
2019-10-08 00:00:00 13.9 6 Este 11 Este 0 1016.2 0.1 86
2019-10-07 23:00:00 14.5 7 Este 13 Este 0 1016.5 0.5 85
2019-10-07 22:00:00 14.9 7 Este 11 Este 0 1016.3 0.4 84
2019-10-07 21:00:00 16.7 4 Este 8 Este 0 1016.1 0.1 75
2019-10-07 20:00:00 19.7 4 Este 13 Noroeste 0 1016 0.1 61
2019-10-07 19:00:00 22.1 10 Noroeste 15 Norte 0 1015.9 -0.2 52
2019-10-07 18:00:00 23.2 10 Norte 21 Nordeste 0 1016 -0.4 48
2019-10-07 17:00:00 23.8 7 Este 17 Nordeste 0 1015.9 -0.9 41
2019-10-07 16:00:00 23.7 5 Norte 24 Norte 0 1016.1 -1.4 41
2019-10-07 15:00:00 23.1 5 Nordeste 15 Este 0 1016.4 -1.6 44
2019-10-07 14:00:00 21.7 5 Este 17 Este 0 1016.8 -1.1 53
2019-10-07 13:00:00 20.8 7 Este 15 Este 0 1017.5 -0.2 60
2019-10-07 12:00:00 19.1 9 Este 15 Sudeste 0 1018 0.6 71
2019-10-07 11:00:00 16.4 11 Este 21 Este 0 1017.9 0.5 84
2019-10-07 10:00:00 14.2 12 Este 24 Este 0 1017.7 -- 90
2019-10-07 09:00:00 12.9 11 Sudeste 15 Sudeste 0 1017.4 -- 96
2019-10-07 08:00:00 12.2 7 Este -- -- -- 1017.4 0.1 99
2019-10-07 07:00:00 -- -- -- -- -- -- -- -- --
2019-10-07 06:00:00 -- -- -- -- -- -- -- -- --
2019-10-07 05:00:00 13.1 8 Este 13 Este 0 1017.3 -1.5 100
2019-10-07 04:00:00 12.9 7 Este 11 Este 0 1017.8 -1.5 100
2019-10-07 03:00:00 12.8 7 Este -- -- 0 1018.5 -1.1 99
2019-10-07 02:00:00 12.9 9 Este 11 Este 0 1018.8 -0.6 98
2019-10-07 01:00:00 13.2 8 Este 9 Este 0 1019.3 0.1 98
2019-10-07 00:00:00 14 6 Este 13 Este 0 1019.6 0.5 97
2019-10-06 23:00:00 14.4 8 Sudeste 11 Nordeste 0 1019.4 0.6 96
2019-10-06 22:00:00 15.2 3 Este 5 Sudeste 0 1019.2 0.7 94
2019-10-06 21:00:00 16.6 2 Sudoeste 5 Sudoeste 0 1019.1 1 92
2019-10-06 20:00:00 17.5 3 Oeste 9 Noroeste 0 1018.8 0.7 89
2019-10-06 19:00:00 17.6 4 Oeste 11 Oeste 0 1018.5 0.4 91
2019-10-06 18:00:00 17.5 6 Oeste 17 Noroeste 0.1 1018.1 0.2 95
2019-10-06 17:00:00 17.1 11 Oeste 28 Noroeste 1.1 1018.1 -0.1 92
2019-10-06 16:00:00 18.6 10 Oeste 22 Oeste 0 1018.1 0 82
2019-10-06 15:00:00 19 13 Oeste 21 Oeste 0 1017.9 0.2 80
2019-10-06 14:00:00 18.2 10 Oeste 22 Oeste 0 1018.2 0.5 86
2019-10-06 13:00:00 17.2 13 Oeste 21 Noroeste 0.5 1018.1 1 95
2019-10-06 12:00:00 18.1 6 Oeste 11 Sudoeste 0 1017.7 1 80
2019-10-06 11:00:00 17.3 0 Calma 8 Este 0 1017.7 1.6 85
2019-10-06 10:00:00 16.5 4 Este 11 Este 0 1017.1 1 88
2019-10-06 09:00:00 15.4 5 Este 11 Este 0 1016.7 0.8 93
2019-10-06 08:00:00 15 3 Este 11 Este 0 1016.1 0.5 93
2019-10-06 07:00:00 14.8 5 Este 9 Este 0 1016.1 0.2 94
2019-10-06 06:00:00 14.6 3 Este 8 Sudeste 0 1015.9 -0.4 94
2019-10-06 05:00:00 14.2 6 Este 11 Este 0 1015.6 -0.2 95
2019-10-06 04:00:00 14 8 Este 11 Este 0 1015.9 0 95
2019-10-06 03:00:00 14.6 4 Nordeste 8 Nordeste 0 1016.3 0 93
2019-10-06 02:00:00 15.1 6 Nordeste 11 Este 0 1015.8 0 92
2019-10-06 01:00:00 16.7 5 Este 9 Este 0 1015.9 0 89
2019-10-06 00:00:00 17.2 6 Noroeste 11 Nordeste 0 1016.3 0.5 86
2019-10-05 23:00:00 17.1 5 Este 9 Este 0 1015.8 0.5 87
2019-10-05 22:00:00 17.7 4 Este 5 Este 0 1015.9 1.3 82
2019-10-05 21:00:00 17.9 5 Oeste 11 Noroeste 0 1015.8 2 80
2019-10-05 20:00:00 18.1 9 Noroeste 18 Norte 0 1015.3 1.7 78
2019-10-05 19:00:00 18.6 8 Norte 18 Norte 0 1014.6 0.8 75
2019-10-05 18:00:00 19.4 12 Norte 21 Norte 0 1013.8 -0.1 74
2019-10-05 17:00:00 19.9 11 Norte 21 Norte 0 1013.6 -0.8 73
2019-10-05 16:00:00 20.4 10 Norte 17 Norte 0 1013.8 -0.7 71
2019-10-05 15:00:00 20.2 9 Nordeste 24 Norte 0 1013.9 -0.6 71
2019-10-05 14:00:00 19.4 15 Norte 26 Norte 0 1014.4 -0.3 74
2019-10-05 13:00:00 20.1 5 Oeste 11 Oeste 0 1014.5 -0.2 65
2019-10-05 12:00:00 19.1 4 Nordeste 9 Norte 0 1014.5 0.2 80
2019-10-05 11:00:00 15.9 5 Este 9 Este 0 1014.7 0.9 99
2019-10-05 10:00:00 14 3 Nordeste 8 Este 0 1014.7 0.8 99
2019-10-05 09:00:00 13.5 5 Este 9 Este 0 1014.3 0.2 99
2019-10-05 08:00:00 13.3 4 Este 11 Este 0 1013.8 -0.5 99
2019-10-05 07:00:00 13.2 5 Este -- -- 0 1013.9 -0.5 99
2019-10-05 06:00:00 14.1 -- -- -- -- 0 1014.1 -0.6 99
2019-10-05 05:00:00 14.3 5 Este 8 Nordeste 0 1014.3 -0.5 98
2019-10-05 04:00:00 14.8 6 Nordeste 8 Nordeste 0 1014.4 -0.9 98
2019-10-05 03:00:00 14.9 5 Este 9 Este 0 1014.7 -0.9 98
2019-10-05 02:00:00 15.9 5 Este 8 Sudeste 0 1014.8 -0.9 95
2019-10-05 01:00:00 16.2 0 Calma 9 Oeste 0 1015.3 -0.1 94
2019-10-05 00:00:00 16.4 0 Calma 8 Este 0 1015.6 0.4 94
2019-10-04 23:00:00 16.6 3 Sudeste 11 Este 0 1015.7 0.7 94
2019-10-04 22:00:00 16.9 5 Este 9 Nordeste 0 1015.4 0.9 93
2019-10-04 21:00:00 16.9 5 Sudeste 8 Noroeste 0 1015.2 0.9 94
2019-10-04 20:00:00 17.3 4 Norte 9 Norte 0 1015 0.7 90
2019-10-04 19:00:00 17.6 5 Noroeste 15 Oeste 0 1014.5 -0.1 88
2019-10-04 18:00:00 17.7 11 Oeste 15 Noroeste 0 1014.3 -0.5 90
2019-10-04 17:00:00 17.3 10 Norte 15 Norte 0 1014.3 -0.8 93
2019-10-04 16:00:00 17.4 10 Oeste 17 Noroeste 0.2 1014.6 -1 95
2019-10-04 15:00:00 17.5 9 Noroeste 18 Oeste 0.4 1014.8 -0.8 93
2019-10-04 14:00:00 17.6 9 Oeste 17 Oeste 0.2 1015.1 -0.5 95
2019-10-04 13:00:00 17.3 12 Noroeste 21 Noroeste 0.4 1015.6 0.4 94
2019-10-04 12:00:00 18.2 6 Oeste 13 Noroeste 0 1015.6 0.9 87
2019-10-04 11:00:00 16.9 3 Nordeste 8 Nordeste 0.1 1015.6 1.6 96
2019-10-04 10:00:00 15.6 2 Nordeste 8 Este 0.4 1015.2 1.4 96
2019-10-04 09:00:00 16 0 Calma 9 Nordeste 0 1014.7 1.3 88
2019-10-04 08:00:00 15.6 5 Este 9 Nordeste 0 1014 0.3 89
2019-10-04 07:00:00 15.5 6 Este 13 Sudeste 0 1013.8 0.1 87
2019-10-04 06:00:00 14.9 4 Este 8 Nordeste 0 1013.4 -0.6 90
2019-10-04 05:00:00 15.4 5 Este 9 Nordeste 0 1013.7 -0.6 87
2019-10-04 04:00:00 15.9 4 Este 8 Sudeste 0 1013.7 -1 82
2019-10-04 03:00:00 15.8 8 Este 13 Este 0 1014 -1.1 83
2019-10-04 02:00:00 15.7 9 Este 11 Este 0 1014.3 -0.9 86
2019-10-04 01:00:00 15.3 4 Este 13 Este 0 1014.7 -0.6 87
2019-10-04 00:00:00 15 8 Este 13 Este 0 1015.1 0.2 87
2019-10-03 23:00:00 15 9 Este 17 Este 0 1015.2 0.4 88
2019-10-03 22:00:00 14.8 7 Este 15 Este 0 1015.3 0.5 88
2019-10-03 21:00:00 16.1 7 Este 13 Este 0 1014.9 0.3 82
2019-10-03 20:00:00 18.4 3 Sudoeste 13 Noroeste 0 1014.8 0.3 69
2019-10-03 19:00:00 20 9 Noroeste 18 Noroeste 0 1014.8 0.3 62
2019-10-03 18:00:00 21.3 13 Noroeste 21 Noroeste 0 1014.6 0 59
2019-10-03 17:00:00 22 13 Oeste 21 Oeste 0 1014.5 -0.3 55
2019-10-03 16:00:00 22.1 12 Noroeste 24 Noroeste 0 1014.5 -0.5 53
2019-10-03 15:00:00 21.7 11 Noroeste 24 Noroeste 0 1014.6 -0.7 52
2019-10-03 14:00:00 21.3 4 Norte 17 Norte 0 1014.8 -0.7 57
2019-10-03 13:00:00 20.1 5 Noroeste 13 Nordeste 0 1015 -0.7 64
2019-10-03 12:00:00 18.6 8 Este 17 Este 0 1015.3 -0.2 72
2019-10-03 11:00:00 16.3 8 Este 15 Este 0 1015.5 0 84
2019-10-03 10:00:00 14.2 9 Este 13 Este 0 1015.7 0.4 94
2019-10-03 09:00:00 12.7 6 Este 15 Sudeste 0 1015.5 0.1 98
2019-10-03 08:00:00 12.4 9 Sudeste 13 Sudeste 0 1015.5 0 99
2019-10-03 07:00:00 12.6 5 Sudeste 9 Sudeste 0 1015.3 -0.8 98
2019-10-03 06:00:00 12.6 5 Este 11 Este 0 1015.4 -1.6 98
2019-10-03 05:00:00 13.3 8 Este 9 Este 0 1015.5 -1.8 97
2019-10-03 04:00:00 14.2 6 Este 11 Este 0 1016.1 -1.7 95
2019-10-03 03:00:00 14.7 3 Este 9 Sudeste 0 1017 -1.3 96
2019-10-03 02:00:00 14.6 6 Este 9 Este 0 1017.3 -1.4 97
2019-10-03 01:00:00 14.5 4 Este 9 Sudeste 0 1017.8 -1 97
2019-10-03 00:00:00 14.4 5 Este 13 Este 0 1018.3 0 97
2019-10-02 23:00:00 15 8 Este 13 Este 0 1018.7 0.6 96
2019-10-02 22:00:00 15.6 0 Calma 11 Oeste 0 1018.8 1.3 94
2019-10-02 21:00:00 15.7 7 Oeste 13 Sudoeste 0.1 1018.3 1.2 94
2019-10-02 20:00:00 15.7 8 Sudoeste 13 Oeste 0 1018.1 1.2 95
2019-10-02 19:00:00 15.8 10 Oeste 18 Oeste 1.2 1017.5 0.7 96
2019-10-02 18:00:00 16.2 10 Oeste 35 Noroeste 0 1017.1 0.4 94
2019-10-02 17:00:00 17.2 24 Noroeste 37 Noroeste 1.4 1016.9 0.3 88
2019-10-02 16:00:00 17.3 17 Noroeste 35 Noroeste 0.8 1016.8 0.5 90
2019-10-02 15:00:00 17.6 27 Oeste 48 Noroeste 0.1 1016.7 0.6 81
2019-10-02 14:00:00 18.5 29 Noroeste 52 Noroeste 0 1016.6 1 74
2019-10-02 13:00:00 19.4 21 Oeste 37 Oeste 0 1016.3 1.7 71
2019-10-02 12:00:00 16.5 11 Oeste 37 Oeste 0 1016.1 2.5 89
2019-10-02 11:00:00 15.7 14 Oeste 32 Oeste 0.4 1015.6 2.4 90
2019-10-02 10:00:00 16.3 9 Oeste 18 Oeste 0.1 1014.6 1.8 86
2019-10-02 09:00:00 15.3 8 Oeste 30 Oeste 0.3 1013.6 1.2 91
2019-10-02 08:00:00 15.6 14 Oeste 33 Oeste 0.7 1013.2 1 90
2019-10-02 07:00:00 15.5 15 Oeste 37 Oeste 1.7 1012.8 0.4 92
2019-10-02 06:00:00 16.9 15 Oeste 45 Oeste 0.1 1012.4 0.2 76
2019-10-02 05:00:00 17.6 15 Oeste 30 Sudoeste 0 1012.2 -0.1 71
2019-10-02 04:00:00 17.1 11 Oeste 48 Oeste 0.2 1012.4 -0.2 79
2019-10-02 03:00:00 18.4 13 Oeste 39 Oeste 0 1012.2 -0.2 69
2019-10-02 02:00:00 18.3 15 Oeste 32 Oeste 0 1012.3 0.4 70
2019-10-02 01:00:00 18.3 12 Oeste 28 Oeste 0 1012.6 0.9 73
2019-10-02 00:00:00 18.2 21 Oeste 37 Oeste 0 1012.4 1.4 76
2019-10-01 23:00:00 18.6 14 Oeste 32 Oeste 0 1011.9 1.3 78
2019-10-01 22:00:00 19.4 19 Oeste 37 Oeste 0 1011.7 1.3 72
2019-10-01 21:00:00 19.6 23 Oeste 42 Oeste 0 1011 1 73
2019-10-01 20:00:00 20 22 Noroeste 37 Noroeste 0 1010.6 0.9 71
2019-10-01 19:00:00 20.4 22 Oeste 37 Oeste 0 1010.4 0.8 69
2019-10-01 18:00:00 20.6 23 Oeste 39 Noroeste 0 1010 0.6 70
2019-10-01 17:00:00 20.6 22 Noroeste 37 Noroeste 0 1009.7 -0.1 74
2019-10-01 16:00:00 21.2 23 Noroeste 42 Noroeste 0 1009.6 -0.2 72
2019-10-01 15:00:00 22 26 Noroeste 35 Noroeste 0 1009.4 -0.4 66
2019-10-01 14:00:00 22.6 21 Noroeste 33 Noroeste 0 1009.8 0.1 67
2019-10-01 13:00:00 21.9 16 Noroeste 28 Noroeste 0 1009.8 0.6 73
2019-10-01 12:00:00 23.3 7 Oeste 13 Noroeste 0 1009.8 1.2 69
2019-10-01 11:00:00 21.7 3 Nordeste 15 Este 0 1009.7 1.6 78
2019-10-01 10:00:00 18.9 7 Este 15 Nordeste 0 1009.2 1.6 91
2019-10-01 09:00:00 17.7 4 Este 11 Nordeste 0 1008.6 2.2 93
2019-10-01 08:00:00 17.9 5 Oeste 15 Noroeste 0 1008.1 1.5 91
2019-10-01 07:00:00 16.8 13 Noroeste 15 Noroeste 0 1007.6 -0.2 96
2019-10-01 06:00:00 17.3 7 Sudeste 17 Sudeste 0 1006.4 -2.5 95
2019-10-01 05:00:00 17 11 Sudeste 15 Sudeste 0 1006.6 -2.6 95
2019-10-01 04:00:00 18.1 8 Este 13 Este 0 1007.8 -1.7 92
2019-10-01 03:00:00 18.5 6 Este 9 Este 0 1008.9 -0.7 91
2019-10-01 02:00:00 18.8 3 Este 8 Este 0 1009.2 -0.4 88
2019-10-01 01:00:00 18.2 6 Este 9 Sudeste 0 1009.5 0.5 90
2019-10-01 00:00:00 19.6 0 Calma 11 Oeste 0 1009.6 0.8 84
2019-09-30 23:00:00 19.8 5 Oeste 8 Sudoeste 0 1009.6 0.8 83
2019-09-30 22:00:00 20.5 3 Este 9 Nordeste 0 1009 0.2 79
2019-09-30 21:00:00 22 4 Este 9 Nordeste 0 1008.8 -0.3 75
2019-09-30 20:00:00 25 5 Nordeste 13 Nordeste 0 1008.8 -0.9 62
2019-09-30 19:00:00 26.7 10 Nordeste 22 Nordeste 0 1008.8 -1.7 55
2019-09-30 18:00:00 27.4 13 Norte 28 Norte 0 1009.1 -2.2 52
2019-09-30 17:00:00 27.8 10 Nordeste 18 Nordeste 0 1009.7 -2.5 49
2019-09-30 16:00:00 27.9 8 Norte 17 Noroeste 0 1010.5 -2.5 47
2019-09-30 15:00:00 28 5 Oeste 13 Sur 0 1011.3 -2.2 46
2019-09-30 14:00:00 27 5 Sudeste 18 Este 0 1012.2 -1.6 51
2019-09-30 13:00:00 25.8 12 Sudeste 18 Nordeste 0 1013 -0.8 56
2019-09-30 12:00:00 23.9 5 Este 13 Este 0 1013.5 -0.1 65
2019-09-30 11:00:00 21.3 5 Este 11 Este 0 1013.8 0.4 74
2019-09-30 10:00:00 18.6 6 Sudeste 11 Sudeste 0 1013.8 0.4 84
2019-09-30 09:00:00 16.5 9 Sudeste 13 Sudeste 0 1013.6 0.2 92
2019-09-30 08:00:00 15.8 10 Este 15 Este 0 1013.4 -0.2 94
2019-09-30 07:00:00 16.3 6 Este 11 Este 0 1013.4 -0.5 94
2019-09-30 06:00:00 16.8 9 Este 11 Este 0 1013.4 -1 95
2019-09-30 05:00:00 17.6 10 Este 13 Este 0 1013.6 -1 96
2019-09-30 04:00:00 18.9 4 Sudeste 9 Este 0 1013.9 -0.9 93
2019-09-30 03:00:00 19.3 6 Sudeste 9 Nordeste 0 1014.4 -0.5 92
2019-09-30 02:00:00 19.1 5 Este 9 Sudeste 0 1014.6 -0.3 93
2019-09-30 01:00:00 20.1 6 Este 9 Este 0 1014.8 0.3 89
2019-09-30 00:00:00 20.3 2 Este 13 Norte 0 1014.9 1.2 87
2019-09-29 23:00:00 20.3 0 Calma 9 Norte 0 1014.9 2.1 77
2019-09-29 22:00:00 20.8 6 Noroeste 13 Norte 0 1014.5 2.2 80
2019-09-29 21:00:00 20.2 0 Calma 9 Norte 0 1013.7 1.8 68
2019-09-29 20:00:00 23 5 Noroeste 15 Norte 0 1012.8 1.2 52
2019-09-29 19:00:00 24.6 9 Norte 18 Oeste 0 1012.3 1.4 44
2019-09-29 18:00:00 26.2 13 Oeste 37 Norte 0 1011.9 1 41
2019-09-29 17:00:00 27.3 21 Norte 33 Norte 0 1011.6 0.1 30
2019-09-29 16:00:00 28.1 10 Norte 22 Norte 0 1010.9 -0.4 27
2019-09-29 15:00:00 28.1 11 Norte 22 Noroeste 0 1010.9 -0.3 32
2019-09-29 14:00:00 27.9 15 Oeste 22 Oeste 0 1011.5 0.4 35
2019-09-29 13:00:00 28.4 11 Noroeste 30 Sudoeste 0 1011.3 0.7 30
2019-09-29 12:00:00 25.5 4 Nordeste 9 Nordeste 0 1011.2 0.8 43
2019-09-29 11:00:00 20.8 4 Sudeste 11 Este 0 1011.1 0.7 61
2019-09-29 10:00:00 16.1 6 Este 13 Este 0 1010.6 0.5 82
2019-09-29 09:00:00 13 9 Este 15 Nordeste 0 1010.4 0 91
2019-09-29 08:00:00 12.4 0 Calma 17 Este 0 1010.4 0 95
2019-09-29 07:00:00 12.8 7 Este 13 Este 0 1010.1 -0.9 94
2019-09-29 06:00:00 13.2 10 Este 15 Este 0 1010.4 -0.9 96
2019-09-29 05:00:00 13.5 9 Este 17 Este 0 1010.4 -1.3 96
2019-09-29 04:00:00 13.9 12 Este 15 Este 0 1011 -1.1 96
2019-09-29 03:00:00 14.2 6 Este 13 Este 0 1011.3 -1.5 96
2019-09-29 02:00:00 14.3 9 Nordeste 11 Este 0 1011.7 -1.6 95
2019-09-29 01:00:00 14.9 5 Nordeste 11 Este 0 1012.1 -1.5 95
2019-09-29 00:00:00 15.4 6 Este 11 Este 0 1012.8 -0.6 93
2019-09-28 23:00:00 16.1 7 Este 13 Este 0 1013.3 0 92
2019-09-28 22:00:00 17.4 3 Norte 9 Norte 0 1013.6 0.4 87
2019-09-28 21:00:00 18.6 0 Calma 13 Oeste 0 1013.4 0.4 83
2019-09-28 20:00:00 19.9 12 Oeste 18 Noroeste 0 1013.3 0 77
2019-09-28 19:00:00 21.9 17 Oeste 30 Oeste 0 1013.2 -0.9 67
2019-09-28 18:00:00 23 18 Oeste 26 Oeste 0 1013 -2.1 64
2019-09-28 17:00:00 24.4 14 Oeste 24 Oeste 0 1013.3 -3 62
2019-09-28 16:00:00 24.7 12 Oeste 18 Sudoeste 0 1014.1 -2.9 60
2019-09-28 15:00:00 24.2 3 Oeste 13 Este 0 1015.1 -2.5 57
2019-09-28 14:00:00 23.5 8 Sudeste 15 Este 0 1016.3 -1.6 61
2019-09-28 13:00:00 22.1 8 Este 15 Este 0 1017 -0.8 65
2019-09-28 12:00:00 20.6 4 Este 17 Este 0 1017.6 -0.1 71
2019-09-28 11:00:00 19.2 7 Este 15 Este 0 1017.9 0.3 80
2019-09-28 10:00:00 17.4 9 Este 15 Este 0 1017.8 0 87
2019-09-28 09:00:00 16.3 8 Este 13 Este 0 1017.7 -0.3 94
2019-09-28 08:00:00 16.1 6 Sudeste 9 Sudeste 0 1017.6 -0.5 95
2019-09-28 07:00:00 16.1 3 Sur 4 Sur 0 1017.8 -0.2 95
2019-09-28 06:00:00 16.1 2 Noroeste 11 Noroeste 0 1018 -0.1 94
2019-09-28 05:00:00 16.9 2 Nordeste 9 Este 0 1018.1 0 89
2019-09-28 04:00:00 16.8 8 Sudeste 11 Sudeste 0 1018 -0.3 91
2019-09-28 03:00:00 16.7 8 Este 11 Este 0 1018.1 -0.2 91
2019-09-28 02:00:00 16.9 2 Sudeste 11 Sur 0 1018.1 -0.1 86
2019-09-28 01:00:00 17.1 8 Sudoeste 15 Oeste 0 1018.3 0.3 87
2019-09-28 00:00:00 17.3 4 Sur 11 Oeste 0 1018.3 0.9 86
2019-09-27 23:00:00 17.6 3 Sur 9 Este 0 1018.2 1.4 85
2019-09-27 22:00:00 17.6 2 Sur 9 Noroeste 0 1018 2 87
2019-09-27 21:00:00 17.3 10 Noroeste 30 Noroeste 0 1017.4 2.1 91
2019-09-27 20:00:00 18.5 20 Noroeste 32 Noroeste 0 1016.8 2.4 84
2019-09-27 19:00:00 20.2 10 Noroeste 30 Noroeste 0 1016 1.6 73
2019-09-27 18:00:00 21.4 19 Noroeste 32 Noroeste 0 1015.3 0.6 73
2019-09-27 17:00:00 23.5 13 Noroeste 24 Norte 0 1014.4 -0.8 61
2019-09-27 16:00:00 24.2 7 Norte 22 Norte 0 1014.4 -1.3 58
2019-09-27 15:00:00 23.3 5 Noroeste 18 Nordeste 0 1014.7 -1.2 64
2019-09-27 14:00:00 22.7 12 Norte 21 Norte 0 1015.2 -0.2 66
2019-09-27 13:00:00 21.1 15 Noroeste 28 Noroeste 0 1015.7 0.6 75
2019-09-27 12:00:00 21.7 19 Noroeste 52 Noroeste 0 1015.9 1.2 71
2019-09-27 11:00:00 20.2 4 Este 13 Sudeste 0 1015.4 0.7 70
2019-09-27 10:00:00 17.8 4 Este 9 Sudeste 0 1015.1 0.6 82
2019-09-27 09:00:00 15.2 5 Este 13 Nordeste 0 1014.7 0 91
2019-09-27 08:00:00 14.5 5 Este 9 Este 0 1014.7 -0.2 94
2019-09-27 07:00:00 14.7 5 Este 9 Este 0 1014.5 -0.5 94
2019-09-27 06:00:00 14.5 2 Este 8 Este 0 1014.7 -0.4 94
2019-09-27 05:00:00 15.3 4 Nordeste 8 Este 0 1014.9 -0.5 94
2019-09-27 04:00:00 15.6 3 Nordeste 8 Nordeste 0 1015 -0.3 93
2019-09-27 03:00:00 15.9 6 Este 11 Este 0 1015.1 0.1 92
2019-09-27 02:00:00 17.6 4 Sudeste 8 Sudeste 0 1015.4 0.8 85
2019-09-27 01:00:00 18.3 0 Calma 8 Norte 0 1015.3 0.5 84
2019-09-27 00:00:00 18.9 4 Nordeste 13 Nordeste 0 1015 0.2 79
2019-09-26 23:00:00 18.8 5 Este 15 Este 0 1014.6 0.1 78
2019-09-26 22:00:00 19.1 8 Sudeste 13 Sudeste 0 1014.8 0.4 77
2019-09-26 21:00:00 19.4 4 Este 11 Nordeste 0 1014.8 0.5 74
2019-09-26 20:00:00 19.6 5 Noroeste 17 Norte 0 1014.5 0.5 72
2019-09-26 19:00:00 20 9 Noroeste 24 Norte 0 1014.4 0.6 71
2019-09-26 18:00:00 20.5 12 Norte 22 Norte 0 1014.3 0.2 70
2019-09-26 17:00:00 21.5 14 Norte 26 Norte 0 1014 -0.7 70
2019-09-26 16:00:00 23.1 12 Norte 22 Norte 0 1013.8 -1.1 65
2019-09-26 15:00:00 22.6 12 Norte 22 Norte 0 1014.1 -1 66
2019-09-26 14:00:00 21.8 16 Noroeste 24 Noroeste 0 1014.7 -0.6 67
2019-09-26 13:00:00 21.9 9 Norte 17 Norte 0 1014.9 -0.4 67
2019-09-26 12:00:00 21.3 3 Oeste 9 Oeste 0 1015.1 0.1 68
2019-09-26 11:00:00 18.6 5 Este 11 Este 0 1015.3 0.6 78
2019-09-26 10:00:00 16.5 5 Este 13 Nordeste 0 1015.3 0.7 87
2019-09-26 09:00:00 15 5 Sudeste 13 Este 0 1015 0.6 92
2019-09-26 08:00:00 14.3 6 Este 11 Nordeste 0 1014.7 0.3 94
2019-09-26 07:00:00 14.6 6 Este 9 Este 0 1014.6 0.2 93
2019-09-26 06:00:00 14.7 7 Este 9 Este 0 1014.4 -0.4 93
2019-09-26 05:00:00 15.3 0 Calma 8 Este 0 1014.4 -0.4 92
2019-09-26 04:00:00 15.2 3 Este 9 Este 0 1014.4 -0.6 93
2019-09-26 03:00:00 15.2 6 Este 9 Este 0 1014.8 -0.1 93
2019-09-26 02:00:00 16 4 Este 9 Este 0 1014.8 0 91
2019-09-26 01:00:00 16.8 4 Sudeste 9 Este 0 1015 0.5 89
2019-09-26 00:00:00 17.8 5 Este 11 Este 0 1014.9 0.8 85
2019-09-25 23:00:00 18.5 8 Este 13 Este 0 1014.8 0.8 83
2019-09-25 22:00:00 19 5 Este 8 Este 0 1014.5 0.6 80
2019-09-25 21:00:00 19.4 0 Calma 9 Norte 0 1014.1 0.6 74
2019-09-25 20:00:00 19.6 5 Noroeste 13 Noroeste 0 1014 0.3 74
2019-09-25 19:00:00 20 9 Noroeste 21 Noroeste 0 1013.9 0.1 70
2019-09-25 18:00:00 20.7 12 Noroeste 22 Noroeste 0 1013.5 -0.3 65
2019-09-25 17:00:00 20.9 18 Noroeste 30 Noroeste 0 1013.7 -0.3 61
2019-09-25 16:00:00 21.8 24 Noroeste 35 Noroeste 0 1013.8 -0.4 57
2019-09-25 15:00:00 21.7 19 Noroeste 30 Noroeste 0 1013.8 -0.8 57
2019-09-25 14:00:00 22.2 17 Noroeste 35 Oeste 0 1014 -0.7 53
2019-09-25 13:00:00 22.6 16 Oeste 32 Oeste 0 1014.2 -0.3 49
2019-09-25 12:00:00 21.3 15 Oeste 26 Oeste 0 1014.6 0.5 54
2019-09-25 11:00:00 19.9 12 Oeste 21 Oeste 0 1014.7 0.8 63
2019-09-25 10:00:00 16.7 8 Este 13 Este 0 1014.5 1 86
2019-09-25 09:00:00 14.6 5 Nordeste 13 Norte 0 1014.1 0.7 94
2019-09-25 08:00:00 14 8 Este 15 Este 0 1013.9 0.8 96
2019-09-25 07:00:00 14.2 7 Este 11 Sudeste 0 1013.5 0.1 97
2019-09-25 06:00:00 15.2 5 Este 8 Nordeste 0 1013.4 0 96
2019-09-25 05:00:00 16.1 5 Este 11 Este 0 1013.1 -0.5 93
2019-09-25 04:00:00 16.2 6 Este 11 Sudeste 0 1013.4 -0.3 94
2019-09-25 03:00:00 16.5 6 Este 11 Sudeste 0 1013.4 -0.6 95
2019-09-25 02:00:00 16.6 6 Este 13 Este 0 1013.6 -0.7 94
2019-09-25 01:00:00 16.5 9 Este 11 Este 0 1013.7 -0.1 95
2019-09-25 00:00:00 16.8 6 Este 13 Sudeste 0.1 1014 0.7 94
2019-09-24 23:00:00 16.9 9 Norte 17 Norte 0.2 1014.3 1.6 94
2019-09-24 22:00:00 17 9 Este 13 Este 0 1013.8 1.3 94
2019-09-24 21:00:00 16.7 4 Sur 26 Oeste 0.2 1013.3 1.2 93
2019-09-24 20:00:00 18.7 16 Noroeste 28 Noroeste 0 1012.7 0.6 80
2019-09-24 19:00:00 20 10 Noroeste 18 Noroeste 0 1012.5 0.6 71
2019-09-24 18:00:00 20.4 13 Noroeste 18 Norte 0 1012.1 0 67
2019-09-24 17:00:00 20.4 12 Noroeste 28 Noroeste 0 1012.1 0 67
2019-09-24 16:00:00 20.9 18 Noroeste 37 Noroeste 0 1011.9 0.7 66
2019-09-24 15:00:00 20.4 24 Noroeste 45 Noroeste 0 1012.1 1.4 68
2019-09-24 14:00:00 21.2 27 Noroeste 50 Noroeste 0 1012.1 1.7 68
2019-09-24 13:00:00 24.4 20 Noroeste 35 Oeste 0 1011.2 1 57
2019-09-24 12:00:00 24.6 19 Sudoeste 35 Sudoeste 0 1010.7 0.7 49
2019-09-24 11:00:00 23.4 9 Oeste 13 Oeste 0 1010.4 0.7 53
2019-09-24 10:00:00 21.7 8 Noroeste 17 Noroeste 0 1010.2 1.9 68
2019-09-24 09:00:00 22.1 6 Nordeste 18 Oeste 0 1010 2.5 52
2019-09-24 08:00:00 23.3 7 Sudoeste 50 Sudoeste 0 1009.7 -- 39
2019-09-24 07:00:00 24.8 36 Sudoeste 63 Sur 0 1008.3 -- 33
2019-09-24 06:00:00 25 14 Sur -- -- -- 1007.5 -- 36
2019-09-24 05:00:00 -- -- -- -- -- -- -- -- --
2019-09-24 04:00:00 -- -- -- -- -- -- -- -- --
2019-09-24 03:00:00 -- -- -- -- -- -- -- -- --
2019-09-24 02:00:00 -- -- -- -- -- -- -- -- --
2019-09-24 01:00:00 18.4 14 Este 21 Este 0 1010.5 -1.6 83
2019-09-24 00:00:00 18.8 5 Sudeste 13 Este 0 1011.9 -0.7 83
2019-09-23 23:00:00 18.9 6 Este 13 Este 0 1012.3 0.1 82
2019-09-23 22:00:00 18.5 8 Este 15 Este 0 1012.1 -0.4 85
2019-09-23 21:00:00 19 8 Nordeste 15 Nordeste 0.3 1012.6 0.4 85
2019-09-23 20:00:00 22 3 Nordeste 11 Nordeste 0 1012.2 0.2 62
2019-09-23 19:00:00 22.8 5 Sur 15 Oeste 0 1012.5 0.4 54
2019-09-23 18:00:00 23.2 8 Sudoeste 17 Sudoeste 0 1012.2 -0.2 52
2019-09-23 17:00:00 24.7 4 Sur 26 Sur 0 1012 -0.5 42
2019-09-23 16:00:00 24.2 8 Sur 18 Sudoeste 0 1012.1 -0.8 44
2019-09-23 15:00:00 23.6 11 Sudoeste 22 Sudoeste 0 1012.4 -1.2 45
2019-09-23 14:00:00 23.2 7 Oeste 18 Sur 0 1012.5 -1.6 46
2019-09-23 13:00:00 22.2 9 Sudeste 17 Sudeste 0 1012.9 -1.4 53
2019-09-23 12:00:00 19.7 3 Este 9 Este 0 1013.6 -0.5 71
2019-09-23 11:00:00 17.8 4 Este 11 Nordeste 0 1014.1 0 80
2019-09-23 10:00:00 16.7 5 Nordeste 11 Este 0 1014.3 0.4 84
2019-09-23 09:00:00 14.6 0 Calma 13 Este 0 1014.1 0.3 90
2019-09-23 08:00:00 13.9 6 Este 13 Sudeste 0 1014.1 0.1 93
2019-09-23 07:00:00 13.9 10 Sudeste 13 Sudeste 0 1013.9 0.2 95
2019-09-23 06:00:00 13.7 10 Sudeste 17 Este 0 1013.8 -0.1 95
2019-09-23 05:00:00 13.9 5 Sudeste 8 Sudeste 0 1014 0 96
2019-09-23 04:00:00 14.7 0 Calma 5 Este 0 1013.7 0 95
2019-09-23 03:00:00 14.9 5 Sudeste 9 Sudeste 0 1013.9 0.2 95
2019-09-23 02:00:00 15.8 5 Este 9 Este 0 1014 0.2 95
2019-09-23 01:00:00 16.3 5 Nordeste 8 Oeste 0 1013.7 0.5 95
2019-09-23 00:00:00 16.4 6 Este 13 Este 0.2 1013.7 1.1 93
2019-09-22 23:00:00 16.3 6 Este 11 Nordeste 0 1013.8 1.9 90
2019-09-22 22:00:00 16.5 0 Calma 5 Este 0 1013.2 1.4 89
2019-09-22 21:00:00 17.4 3 Sudeste 8 Este 0 1012.6 1.4 85
2019-09-22 20:00:00 18.6 2 Sur 9 Este 0 1011.9 1.7 80
2019-09-22 19:00:00 19.1 6 Noroeste 18 Noroeste 0.1 1011.8 2 73
2019-09-22 18:00:00 20.6 13 Noroeste 28 Norte 0 1011.2 2 62
2019-09-22 17:00:00 21.7 18 Norte 32 Norte 0 1010.2 1 58
2019-09-22 16:00:00 22.7 21 Norte 30 Norte 0 1009.8 0.6 57
2019-09-22 15:00:00 23.4 10 Nordeste 21 Norte 0 1009.2 0.4 55
2019-09-22 14:00:00 22.2 6 Nordeste 17 Norte 0 1009.2 0.6 53
2019-09-22 13:00:00 21.1 9 Norte 17 Oeste 0 1009.2 1.1 62
2019-09-22 12:00:00 20.8 10 Sudoeste 21 Sudoeste 0 1008.8 1.2 63
2019-09-22 11:00:00 19.2 6 Sudeste 15 Nordeste 0 1008.6 1.8 83
2019-09-22 10:00:00 17.6 6 Este 15 Nordeste 0 1008.1 2.1 90
2019-09-22 09:00:00 16.5 8 Sudeste 13 Sudeste 0 1007.6 2 95
2019-09-22 08:00:00 16.5 8 Este 13 Sudoeste 0 1006.8 1.1 94
2019-09-22 07:00:00 16.5 0 Calma 9 Sudeste 1.5 1006 0.7 96
2019-09-22 06:00:00 16.5 2 Oeste 13 Oeste 5.2 1005.6 0.9 96
2019-09-22 05:00:00 17 4 Sudoeste 13 Sudoeste 6.4 1005.7 2.4 94
2019-09-22 04:00:00 18.4 11 Oeste 18 Noroeste 0.3 1005.3 2.8 82
2019-09-22 03:00:00 18.8 6 Norte 39 Noroeste 0 1004.7 2.6 80
2019-09-22 02:00:00 20.8 32 Noroeste 45 Noroeste 0 1003.3 1.5 78
2019-09-22 01:00:00 25.4 15 Sur 33 Sur 0.1 1002.5 0.9 50
2019-09-22 00:00:00 25.2 15 Sur 33 Sudeste 0 1002.1 0.4 50
2019-09-21 23:00:00 25.4 12 Sudeste 37 Sudeste 0 1001.8 0.2 49
2019-09-21 22:00:00 25 17 Sudeste 35 Sur 0 1001.6 0 50
2019-09-21 21:00:00 25.3 8 Este 32 Este 0 1001.7 -0.2 49
2019-09-21 20:00:00 26.1 18 Sudeste 37 Sur 0 1001.6 -0.8 47
2019-09-21 19:00:00 27.1 19 Sur 39 Sur 0 1001.6 -1.6 43
2019-09-21 18:00:00 26.3 13 Sudeste 35 Sudeste 0 1001.9 -1.3 48
2019-09-21 17:00:00 26 15 Sudeste 28 Sudeste 0 1002.4 -1.3 49
2019-09-21 16:00:00 26.1 13 Sur 28 Sur 0 1003.2 -1.3 47
2019-09-21 15:00:00 26.7 16 Sur 39 Sur 0 1003.2 -1.7 45
2019-09-21 14:00:00 26.6 19 Sur 39 Sur 0 1003.7 -1.5 47
2019-09-21 13:00:00 25.7 18 Sur 32 Sur 0 1004.5 -1 51
2019-09-21 12:00:00 25.5 15 Sur 39 Sur 0 1004.9 -0.7 54
2019-09-21 11:00:00 24.3 21 Sur 39 Sur 0 1005.2 -0.3 58
2019-09-21 10:00:00 22.5 13 Sur 32 Sudeste 0 1005.5 -- 66
2019-09-21 09:00:00 21.5 11 Sur 32 Sur 0 1005.6 0.3 68
2019-09-21 08:00:00 21.4 21 Sudeste 30 Sudeste 0 1005.5 0 68
2019-09-21 07:00:00 21.6 -- -- 35 Sudeste 0 -- -- 67
2019-09-21 06:00:00 21.5 12 Sur 37 Sur 0 1005.3 -1.1 68
2019-09-21 05:00:00 21.5 5 Este 21 Sur 0 1005.5 -1.4 68
2019-09-21 04:00:00 20 3 Este 22 Sur 0 1005.4 -1 75
2019-09-21 03:00:00 21.5 16 Sur 37 Sur 0 1006.4 -0.5 64
2019-09-21 02:00:00 21.1 9 Sur 21 Sur 0 1006.9 -0.3 65
2019-09-21 01:00:00 19.4 7 Este 42 Sudeste 0 1006.4 -1.2 79
2019-09-21 00:00:00 20 25 Sudeste 52 Sur 1.8 1006.9 -1 71
2019-09-20 23:00:00 20.8 28 Sur 50 Sur 0.3 1007.2 0.6 68
2019-09-20 22:00:00 19.8 5 Nordeste 30 Este 0.9 1007.6 1.5 85
2019-09-20 21:00:00 20.3 18 Este 58 Sudoeste 1.9 1007.9 1.6 82
2019-09-20 20:00:00 26.9 10 Sudeste 22 Sudeste 0 1006.6 0.5 54
2019-09-20 19:00:00 28.1 14 Sudeste 35 Sudeste 0 1006.1 -0.5 50
2019-09-20 18:00:00 28.7 23 Sudeste 45 Sudeste 0 1006.3 -1.1 47
2019-09-20 17:00:00 31.1 22 Sudeste 45 Sudeste 0 1006.1 -2.1 42
2019-09-20 16:00:00 31.6 20 Sudeste 33 Sudeste 0 1006.6 -2.1 41
2019-09-20 15:00:00 30.8 18 Sudeste 39 Sudeste 0 1007.4 -2 44
2019-09-20 14:00:00 29.9 15 Sudeste 33 Sur 0 1008.2 -1.7 45
2019-09-20 13:00:00 28.9 16 Este 30 Sudeste 0 1008.7 -1.4 51
2019-09-20 12:00:00 27.1 15 Sudeste 30 Este 0 1009.4 -0.6 53
2019-09-20 11:00:00 24.1 9 Este 24 Nordeste 0 1009.9 0 61
2019-09-20 10:00:00 21.1 12 Sudeste 18 Sudeste 0 1010.1 0.3 75
2019-09-20 09:00:00 17.1 10 Este 17 Este 0 1010 -0.4 90
2019-09-20 08:00:00 15.4 11 Este 22 Este 0 1009.9 -1.1 94
2019-09-20 07:00:00 14.8 2 Este 13 Este 0 1009.8 -1.7 95
2019-09-20 06:00:00 15.1 9 Este 13 Este 0 1010.4 -1.6 94
2019-09-20 05:00:00 15 3 Nordeste 11 Este 0 1011 -1.2 94
2019-09-20 04:00:00 15 7 Este 11 Este 0 1011.5 -1.3 94
2019-09-20 03:00:00 15.3 8 Este 11 Este 0 1012 -1.4 93
2019-09-20 02:00:00 15.5 8 Este 11 Este 0 1012.2 -1.6 92
2019-09-20 01:00:00 15.9 9 Este 13 Este 0 1012.8 -1 91
2019-09-20 00:00:00 16.2 7 Este 13 Este 0 1013.4 0.2 90
2019-09-19 23:00:00 16.9 5 Este 11 Nordeste 0 1013.8 0.8 85
2019-09-19 22:00:00 17.6 5 Este 9 Nordeste 0 1013.8 1 82
2019-09-19 21:00:00 19.1 3 Oeste 11 Oeste 0 1013.2 0.5 73
2019-09-19 20:00:00 20.5 9 Oeste 22 Noroeste 0 1013 0.1 66
2019-09-19 19:00:00 21.9 13 Oeste 24 Oeste 0 1012.8 -0.4 61
2019-09-19 18:00:00 23.1 17 Oeste 24 Noroeste 0 1012.7 -0.9 57
2019-09-19 17:00:00 23.8 14 Oeste 26 Noroeste 0 1012.9 -1.2 58
2019-09-19 16:00:00 24.2 11 Noroeste 22 Oeste 0 1013.2 -1.5 61
2019-09-19 15:00:00 23.9 9 Noroeste 22 Oeste 0 1013.6 -1.5 64
2019-09-19 14:00:00 23.4 7 Noroeste 18 Noroeste 0 1014.1 -1.1 66
2019-09-19 13:00:00 22.6 5 Noroeste 18 Noroeste 0 1014.7 -0.5 68
2019-09-19 12:00:00 21.1 6 Noroeste 13 Noroeste 0 1015.1 0.3 77
2019-09-19 11:00:00 19.5 5 Este 11 Nordeste 0 1015.2 0.6 85
2019-09-19 10:00:00 17.7 7 Este 15 Este 0 1015.2 0.9 94
2019-09-19 09:00:00 16.4 8 Este 13 Este 0 1014.8 0.7 97
2019-09-19 08:00:00 15.5 5 Este 13 Nordeste 0 1014.6 0.3 97
2019-09-19 07:00:00 15.4 6 Nordeste 9 Nordeste 0 1014.3 -0.4 97
2019-09-19 06:00:00 15.5 3 Nordeste 8 Este 0 1014.1 -0.8 95
2019-09-19 05:00:00 16.1 5 Este 8 Este 0 1014.3 -0.6 95
2019-09-19 04:00:00 16.9 4 Este -- -- 0 1014.7 -0.5 94
2019-09-19 03:00:00 17.4 5 Sudeste 9 Este 0 1014.9 -0.4 94
2019-09-19 02:00:00 18.6 4 Noroeste 11 Oeste 0 1014.9 -0.1 88
2019-09-19 01:00:00 19.4 5 Oeste 11 Oeste 0 1015.2 0.6 86
2019-09-19 00:00:00 19.4 6 Noroeste 11 Oeste 0 1015.3 1.1 86
2019-09-18 23:00:00 19.5 6 Norte 13 Norte 0 1015 1.1 85
2019-09-18 22:00:00 19.7 6 Noroeste 13 Oeste 0 1014.6 1 86
2019-09-18 21:00:00 20.1 8 Oeste 11 Oeste 0 1014.2 0.9 85
2019-09-18 20:00:00 20.5 8 Noroeste 18 Norte 0 1013.9 0.6 84
2019-09-18 19:00:00 21.1 10 Norte 18 Norte 0 1013.6 -0.1 82
2019-09-18 18:00:00 21.9 14 Noroeste 26 Noroeste 0 1013.3 -0.5 80
2019-09-18 17:00:00 22 14 Oeste 21 Oeste 0 1013.3 -0.1 81
2019-09-18 16:00:00 22.4 12 Noroeste 24 Noroeste 0 1013.7 0.3 80
2019-09-18 15:00:00 22.1 15 Noroeste 26 Noroeste 0 1013.8 0.4 84
2019-09-18 14:00:00 22.1 17 Noroeste 24 Norte 0 1013.4 0.1 85
2019-09-18 13:00:00 21.9 8 Noroeste 15 Noroeste 0 1013.4 0.5 85
2019-09-18 12:00:00 21.5 4 Este 9 Este 0 1013.4 1.3 87
2019-09-18 11:00:00 21 0 Calma 8 Nordeste 0 1013.3 1.7 90
2019-09-18 10:00:00 20.6 0 Calma 9 Nordeste 0 1012.9 1.5 90
2019-09-18 09:00:00 19.7 6 Este 13 Este 0 1012.1 0.7 96
2019-09-18 08:00:00 19.3 0 Calma 9 Este 0 1011.6 -0.1 97
2019-09-18 07:00:00 19 6 Oeste 13 Sudoeste 0.2 1011.4 -0.9 97
2019-09-18 06:00:00 19.2 3 Sudoeste 8 Nordeste 2 1011.4 -0.8 96
2019-09-18 05:00:00 19.4 3 Sur 11 Nordeste 0.3 1011.7 -0.4 93
2019-09-18 04:00:00 19.4 8 Nordeste 11 Nordeste 0 1012.3 -0.5 95
2019-09-18 03:00:00 19.5 2 Este 5 Este 0 1012.2 -0.7 93
2019-09-18 02:00:00 20.1 0 Calma 15 Noroeste 0 1012.1 -0.5 92
2019-09-18 01:00:00 20.5 7 Oeste 13 Noroeste 0 1012.8 0.4 93
2019-09-18 00:00:00 20.8 10 Oeste 13 Oeste 0 1012.9 0.8 95
2019-09-17 23:00:00 20.6 6 Oeste 11 Oeste 0 1012.6 1.3 94
2019-09-17 22:00:00 20.5 0 Calma 9 Nordeste 0 1012.4 0.7 91
2019-09-17 21:00:00 21.1 8 Oeste 13 Noroeste 0 1012.1 0.3 90